Aérodrome :
LOGIN :

S'inscrire | Disclaimer

   EN    FR    IT 

 










Légende :    VFR   VFR Marginal   IFR   IFR Intensif   IFR Très Intensif
Visi : 
Plafond : 
>= 8 km
>= 3000ft
5 à 8 km
1000 à 3000 ft
1500m à 5 km
500 à 1000 ft
800 à 1500m
200 à 500 ft
< 800m
< 200 ft
Symboles :   Orages  Brouillard  Fortes neiges  Fortes précipitations  Vent > 20 kt
SIGMETs :   Divers  Orages  Givrage  Turbulence  Onde Orograph.  Cendres Volcan.






- Altitude de l'aérodrome : 53 ft
- Code IATA : AGP


LEMG - Malaga

DERNIER METAR :
  • 242213Z 10015KT 9999 RA SCT014 FEW025CB BKN050 14/12 Q1018 TEMPO TSRA FEW025CB

METARs EXPIRÉS :
  • 242130Z 09015KT 9999 -RA FEW015 SCT034TCU BKN050 14/12 Q1018 TEMPO TSRA FEW025CB
  • 242100Z 10012KT 9999 -RA FEW015 SCT034 BKN050 14/12 Q1018 TEMPO FEW025CB
  • 242030Z 10010KT 070V130 9999 -RA FEW015 SCT034 BKN050 14/12 Q1019 TEMPO FEW025CB
  • 242000Z 10010KT 070V130 9999 -RA FEW017 SCT050 BKN060 14/11 Q1019 TEMPO FEW025CB
  • 241930Z 11011KT 080V140 9999 -RA FEW017 SCT045 BKN050 14/12 Q1019 TEMPO FEW025CB

TAF TAF LEMG
Valide du 24 à 18h jusqu'au 25 à 18h UTC


241700Z 2418/2518 12012KT 9999 SCT010 BKN025 TX14/2514Z TN09/2506Z
TEMPO 2422/2506 12018G30KT
TEMPO 2418/2518 4000 SHRA FEW020CB
PROB30
TEMPO 2418/2506 3000 TSRA SCT020CB
PROB40
TEMPO 2506/2515 VRB15G25KT 2000 TSRA SCT020CB



MET'MAP, la Météo Aéronautique d'un coup d'oeil ! - Copyright ORBIFLY Décembre 2007 - Disclaimer

ORBIFLY MET'MAP TEAM :

Programmation & Développement : Alexandra Zaïnal
Sur une idée originale de : Baudouin d'Aumeries
Assistance à la programmation : Marc-Olivier Méhu
Soutien technique & logistique : Manuel Goepfert

Contact : metmap@orbifly.com




SOURCES & CREDITS :

   NOAA